sensor_id;sensor_type;location;lat;lon;timestamp;temperature;humidity
15384;DHT22;7790;53.022;12.968;2022-09-09T00:01:59;20.70;57.30
15384;DHT22;7790;53.022;12.968;2022-09-09T00:06:42;20.70;57.30
15384;DHT22;7790;53.022;12.968;2022-09-09T00:10:43;20.70;57.30
15384;DHT22;7790;53.022;12.968;2022-09-09T00:19:38;20.70;57.30
15384;DHT22;7790;53.022;12.968;2022-09-09T00:23:53;20.70;57.40
15384;DHT22;7790;53.022;12.968;2022-09-09T00:27:54;20.70;57.40
15384;DHT22;7790;53.022;12.968;2022-09-09T00:32:09;20.70;57.40
15384;DHT22;7790;53.022;12.968;2022-09-09T00:36:18;20.70;57.40
15384;DHT22;7790;53.022;12.968;2022-09-09T00:40:26;20.70;57.40
15384;DHT22;7790;53.022;12.968;2022-09-09T00:44:36;20.70;57.40
15384;DHT22;7790;53.022;12.968;2022-09-09T00:53:27;20.70;57.50
15384;DHT22;7790;53.022;12.968;2022-09-09T00:57:32;20.70;57.40
15384;DHT22;7790;53.022;12.968;2022-09-09T01:01:34;20.70;57.50
15384;DHT22;7790;53.022;12.968;2022-09-09T01:10:08;20.70;57.50
15384;DHT22;7790;53.022;12.968;2022-09-09T01:18:39;20.70;57.50
15384;DHT22;7790;53.022;12.968;2022-09-09T01:27:03;20.70;57.50
15384;DHT22;7790;53.022;12.968;2022-09-09T01:31:09;20.70;57.50
15384;DHT22;7790;53.022;12.968;2022-09-09T01:35:32;20.70;57.50
15384;DHT22;7790;53.022;12.968;2022-09-09T01:39:40;20.70;57.50
15384;DHT22;7790;53.022;12.968;2022-09-09T01:43:45;20.70;57.50
15384;DHT22;7790;53.022;12.968;2022-09-09T01:47:47;20.70;57.50
15384;DHT22;7790;53.022;12.968;2022-09-09T01:51:55;20.70;57.60
15384;DHT22;7790;53.022;12.968;2022-09-09T02:00:43;20.70;57.60
15384;DHT22;7790;53.022;12.968;2022-09-09T02:04:48;20.70;57.60
15384;DHT22;7790;53.022;12.968;2022-09-09T02:08:59;20.70;57.50
15384;DHT22;7790;53.022;12.968;2022-09-09T02:13:15;20.70;57.60
15384;DHT22;7790;53.022;12.968;2022-09-09T02:17:27;20.70;57.60
15384;DHT22;7790;53.022;12.968;2022-09-09T02:21:37;20.70;57.60
15384;DHT22;7790;53.022;12.968;2022-09-09T02:25:41;20.70;57.60
15384;DHT22;7790;53.022;12.968;2022-09-09T02:29:56;20.70;57.60
15384;DHT22;7790;53.022;12.968;2022-09-09T02:34:17;20.70;57.50
15384;DHT22;7790;53.022;12.968;2022-09-09T02:38:21;20.70;57.60
15384;DHT22;7790;53.022;12.968;2022-09-09T02:42:32;20.70;57.60
15384;DHT22;7790;53.022;12.968;2022-09-09T02:51:14;20.70;57.60
15384;DHT22;7790;53.022;12.968;2022-09-09T02:55:23;20.70;57.60
15384;DHT22;7790;53.022;12.968;2022-09-09T02:59:30;20.70;57.50
15384;DHT22;7790;53.022;12.968;2022-09-09T03:03:32;20.70;57.70
15384;DHT22;7790;53.022;12.968;2022-09-09T03:07:35;20.70;57.80
15384;DHT22;7790;53.022;12.968;2022-09-09T03:11:37;20.80;58.00
15384;DHT22;7790;53.022;12.968;2022-09-09T03:15:40;20.70;58.00
15384;DHT22;7790;53.022;12.968;2022-09-09T03:19:44;20.70;58.00
15384;DHT22;7790;53.022;12.968;2022-09-09T03:23:45;20.70;57.90
15384;DHT22;7790;53.022;12.968;2022-09-09T03:27:46;20.70;57.90
15384;DHT22;7790;53.022;12.968;2022-09-09T03:31:47;20.70;57.90
15384;DHT22;7790;53.022;12.968;2022-09-09T03:35:48;20.70;58.00
15384;DHT22;7790;53.022;12.968;2022-09-09T03:39:51;20.80;57.90
15384;DHT22;7790;53.022;12.968;2022-09-09T03:43:53;20.70;57.90
15384;DHT22;7790;53.022;12.968;2022-09-09T03:47:56;20.70;57.90
15384;DHT22;7790;53.022;12.968;2022-09-09T03:51:58;20.70;57.80
15384;DHT22;7790;53.022;12.968;2022-09-09T03:55:59;20.70;57.80
15384;DHT22;7790;53.022;12.968;2022-09-09T04:00:04;20.70;57.80
15384;DHT22;7790;53.022;12.968;2022-09-09T04:04:06;20.70;57.80
15384;DHT22;7790;53.022;12.968;2022-09-09T04:08:08;20.70;57.80
15384;DHT22;7790;53.022;12.968;2022-09-09T04:12:09;20.70;57.80
15384;DHT22;7790;53.022;12.968;2022-09-09T04:16:14;20.70;57.80
15384;DHT22;7790;53.022;12.968;2022-09-09T04:20:16;20.70;57.70
15384;DHT22;7790;53.022;12.968;2022-09-09T04:24:17;20.70;57.80
15384;DHT22;7790;53.022;12.968;2022-09-09T04:28:22;20.70;57.70
15384;DHT22;7790;53.022;12.968;2022-09-09T04:32:23;20.70;57.70
15384;DHT22;7790;53.022;12.968;2022-09-09T04:36:28;20.70;57.70
15384;DHT22;7790;53.022;12.968;2022-09-09T04:40:33;20.70;57.70
15384;DHT22;7790;53.022;12.968;2022-09-09T04:44:34;20.70;57.70
15384;DHT22;7790;53.022;12.968;2022-09-09T04:48:36;20.70;57.70
15384;DHT22;7790;53.022;12.968;2022-09-09T04:52:39;20.70;58.10
15384;DHT22;7790;53.022;12.968;2022-09-09T04:56:40;20.70;57.70
15384;DHT22;7790;53.022;12.968;2022-09-09T05:00:43;20.70;57.60
15384;DHT22;7790;53.022;12.968;2022-09-09T05:04:45;20.40;57.50
15384;DHT22;7790;53.022;12.968;2022-09-09T05:08:47;20.70;57.60
15384;DHT22;7790;53.022;12.968;2022-09-09T05:12:53;20.60;57.60
15384;DHT22;7790;53.022;12.968;2022-09-09T05:16:55;20.70;57.60
15384;DHT22;7790;53.022;12.968;2022-09-09T05:21:01;20.60;57.60
15384;DHT22;7790;53.022;12.968;2022-09-09T05:25:03;20.60;57.60
15384;DHT22;7790;53.022;12.968;2022-09-09T05:29:04;20.60;57.60
15384;DHT22;7790;53.022;12.968;2022-09-09T05:33:06;20.60;57.60
15384;DHT22;7790;53.022;12.968;2022-09-09T05:37:10;20.60;57.60
15384;DHT22;7790;53.022;12.968;2022-09-09T05:41:12;20.60;57.50
15384;DHT22;7790;53.022;12.968;2022-09-09T05:45:16;20.60;57.60
15384;DHT22;7790;53.022;12.968;2022-09-09T05:49:16;20.60;57.50
15384;DHT22;7790;53.022;12.968;2022-09-09T05:53:19;20.60;57.50
15384;DHT22;7790;53.022;12.968;2022-09-09T05:57:20;20.60;57.60
15384;DHT22;7790;53.022;12.968;2022-09-09T06:01:30;20.60;57.60
15384;DHT22;7790;53.022;12.968;2022-09-09T06:05:32;20.60;57.60
15384;DHT22;7790;53.022;12.968;2022-09-09T06:09:34;20.60;57.50
15384;DHT22;7790;53.022;12.968;2022-09-09T06:13:36;20.60;57.50
15384;DHT22;7790;53.022;12.968;2022-09-09T06:17:38;20.60;57.50
15384;DHT22;7790;53.022;12.968;2022-09-09T06:21:41;20.60;57.50
15384;DHT22;7790;53.022;12.968;2022-09-09T06:25:45;20.60;57.50
15384;DHT22;7790;53.022;12.968;2022-09-09T06:29:46;20.60;57.50
15384;DHT22;7790;53.022;12.968;2022-09-09T06:33:48;20.60;57.60
15384;DHT22;7790;53.022;12.968;2022-09-09T06:37:50;20.60;57.60
15384;DHT22;7790;53.022;12.968;2022-09-09T06:41:53;20.60;57.60
15384;DHT22;7790;53.022;12.968;2022-09-09T06:46:19;20.60;57.70
15384;DHT22;7790;53.022;12.968;2022-09-09T06:50:21;20.60;57.70
15384;DHT22;7790;53.022;12.968;2022-09-09T06:54:24;20.70;57.70
15384;DHT22;7790;53.022;12.968;2022-09-09T06:58:26;20.70;57.80
15384;DHT22;7790;53.022;12.968;2022-09-09T07:02:29;20.70;57.90
15384;DHT22;7790;53.022;12.968;2022-09-09T07:06:32;20.70;57.80
15384;DHT22;7790;53.022;12.968;2022-09-09T07:10:35;20.70;57.70
15384;DHT22;7790;53.022;12.968;2022-09-09T07:14:36;20.70;57.80
15384;DHT22;7790;53.022;12.968;2022-09-09T07:18:40;20.70;57.80
15384;DHT22;7790;53.022;12.968;2022-09-09T07:22:42;20.70;57.80
15384;DHT22;7790;53.022;12.968;2022-09-09T07:26:44;20.70;57.70
15384;DHT22;7790;53.022;12.968;2022-09-09T07:30:58;20.70;57.70
15384;DHT22;7790;53.022;12.968;2022-09-09T07:35:00;20.70;57.80
15384;DHT22;7790;53.022;12.968;2022-09-09T07:39:06;20.80;57.90
15384;DHT22;7790;53.022;12.968;2022-09-09T07:43:08;20.80;57.80
15384;DHT22;7790;53.022;12.968;2022-09-09T07:47:09;20.80;57.90
15384;DHT22;7790;53.022;12.968;2022-09-09T07:51:28;20.80;57.90
15384;DHT22;7790;53.022;12.968;2022-09-09T07:55:29;20.80;57.90
15384;DHT22;7790;53.022;12.968;2022-09-09T07:59:31;20.80;58.00
15384;DHT22;7790;53.022;12.968;2022-09-09T08:03:32;20.80;58.00
15384;DHT22;7790;53.022;12.968;2022-09-09T08:07:33;20.90;58.30
15384;DHT22;7790;53.022;12.968;2022-09-09T08:11:36;20.90;58.20
15384;DHT22;7790;53.022;12.968;2022-09-09T08:15:37;20.90;58.20
15384;DHT22;7790;53.022;12.968;2022-09-09T08:19:39;21.00;58.30
15384;DHT22;7790;53.022;12.968;2022-09-09T08:23:46;20.90;58.30
15384;DHT22;7790;53.022;12.968;2022-09-09T08:27:48;21.00;58.40
15384;DHT22;7790;53.022;12.968;2022-09-09T08:31:52;21.00;58.40
15384;DHT22;7790;53.022;12.968;2022-09-09T08:35:55;21.00;58.30
15384;DHT22;7790;53.022;12.968;2022-09-09T08:39:57;21.00;58.40
15384;DHT22;7790;53.022;12.968;2022-09-09T08:44:10;21.00;58.30
15384;DHT22;7790;53.022;12.968;2022-09-09T08:52:25;21.10;58.10
15384;DHT22;7790;53.022;12.968;2022-09-09T08:56:31;21.10;58.20
15384;DHT22;7790;53.022;12.968;2022-09-09T09:04:59;21.20;58.20
15384;DHT22;7790;53.022;12.968;2022-09-09T09:09:11;21.20;58.10
15384;DHT22;7790;53.022;12.968;2022-09-09T09:13:49;21.30;58.20
15384;DHT22;7790;53.022;12.968;2022-09-09T09:17:53;21.40;58.10
15384;DHT22;7790;53.022;12.968;2022-09-09T09:26:07;21.40;57.90
15384;DHT22;7790;53.022;12.968;2022-09-09T09:30:19;21.50;57.70
15384;DHT22;7790;53.022;12.968;2022-09-09T09:34:22;21.50;57.60
15384;DHT22;7790;53.022;12.968;2022-09-09T09:38:26;21.60;57.70
15384;DHT22;7790;53.022;12.968;2022-09-09T09:42:30;21.70;57.60
15384;DHT22;7790;53.022;12.968;2022-09-09T09:46:32;21.70;57.60
15384;DHT22;7790;53.022;12.968;2022-09-09T09:50:52;21.60;57.50
15384;DHT22;7790;53.022;12.968;2022-09-09T09:54:54;21.70;57.60
15384;DHT22;7790;53.022;12.968;2022-09-09T09:58:56;21.70;57.40
15384;DHT22;7790;53.022;12.968;2022-09-09T10:07:30;21.70;57.10
15384;DHT22;7790;53.022;12.968;2022-09-09T10:20:49;21.80;56.80
15384;DHT22;7790;53.022;12.968;2022-09-09T10:33:37;21.70;56.90
15384;DHT22;7790;53.022;12.968;2022-09-09T10:37:46;21.70;57.60
15384;DHT22;7790;53.022;12.968;2022-09-09T10:42:12;21.70;56.90
15384;DHT22;7790;53.022;12.968;2022-09-09T10:50:37;21.70;56.80
15384;DHT22;7790;53.022;12.968;2022-09-09T10:54:56;21.70;56.90
15384;DHT22;7790;53.022;12.968;2022-09-09T11:03:04;21.70;56.90
15384;DHT22;7790;53.022;12.968;2022-09-09T11:07:11;21.60;56.80
15384;DHT22;7790;53.022;12.968;2022-09-09T11:11:34;21.60;57.50
15384;DHT22;7790;53.022;12.968;2022-09-09T11:15:44;21.60;57.30
15384;DHT22;7790;53.022;12.968;2022-09-09T11:19:46;21.60;57.10
15384;DHT22;7790;53.022;12.968;2022-09-09T11:23:55;21.60;57.10
15384;DHT22;7790;53.022;12.968;2022-09-09T11:28:36;21.60;57.30
15384;DHT22;7790;53.022;12.968;2022-09-09T11:37:23;21.70;57.20
15384;DHT22;7790;53.022;12.968;2022-09-09T11:41:35;21.60;57.30
15384;DHT22;7790;53.022;12.968;2022-09-09T11:45:37;21.60;57.20
15384;DHT22;7790;53.022;12.968;2022-09-09T11:49:40;21.60;57.20
15384;DHT22;7790;53.022;12.968;2022-09-09T11:53:55;21.60;57.30
15384;DHT22;7790;53.022;12.968;2022-09-09T11:57:59;21.60;57.30
15384;DHT22;7790;53.022;12.968;2022-09-09T12:06:31;21.60;57.30
15384;DHT22;7790;53.022;12.968;2022-09-09T12:10:34;21.60;57.30
15384;DHT22;7790;53.022;12.968;2022-09-09T12:14:42;21.60;57.40
15384;DHT22;7790;53.022;12.968;2022-09-09T12:18:46;21.60;57.40
15384;DHT22;7790;53.022;12.968;2022-09-09T12:23:19;21.60;57.40
15384;DHT22;7790;53.022;12.968;2022-09-09T12:27:33;21.60;57.60
15384;DHT22;7790;53.022;12.968;2022-09-09T12:35:42;21.50;57.50
15384;DHT22;7790;53.022;12.968;2022-09-09T12:39:58;21.50;57.50
15384;DHT22;7790;53.022;12.968;2022-09-09T12:44:08;21.60;57.60
15384;DHT22;7790;53.022;12.968;2022-09-09T12:48:14;21.50;58.00
15384;DHT22;7790;53.022;12.968;2022-09-09T12:52:33;21.50;57.60
15384;DHT22;7790;53.022;12.968;2022-09-09T12:56:35;21.50;57.60
15384;DHT22;7790;53.022;12.968;2022-09-09T13:00:36;21.50;57.60
15384;DHT22;7790;53.022;12.968;2022-09-09T13:04:37;21.50;57.60
15384;DHT22;7790;53.022;12.968;2022-09-09T13:08:38;21.50;57.60
15384;DHT22;7790;53.022;12.968;2022-09-09T13:12:40;21.50;57.60
15384;DHT22;7790;53.022;12.968;2022-09-09T13:16:42;21.50;57.50
15384;DHT22;7790;53.022;12.968;2022-09-09T13:20:48;21.50;57.50
15384;DHT22;7790;53.022;12.968;2022-09-09T13:25:03;21.50;57.50
15384;DHT22;7790;53.022;12.968;2022-09-09T13:29:16;21.50;57.60
15384;DHT22;7790;53.022;12.968;2022-09-09T13:33:21;21.50;57.60
15384;DHT22;7790;53.022;12.968;2022-09-09T13:37:43;21.50;57.70
15384;DHT22;7790;53.022;12.968;2022-09-09T13:41:46;21.50;57.60
15384;DHT22;7790;53.022;12.968;2022-09-09T13:45:57;21.50;57.60
15384;DHT22;7790;53.022;12.968;2022-09-09T13:50:17;21.50;57.60
15384;DHT22;7790;53.022;12.968;2022-09-09T13:54:20;21.50;57.60
15384;DHT22;7790;53.022;12.968;2022-09-09T13:58:21;21.50;57.60
15384;DHT22;7790;53.022;12.968;2022-09-09T14:02:23;21.40;57.60
15384;DHT22;7790;53.022;12.968;2022-09-09T14:06:25;21.40;57.60
15384;DHT22;7790;53.022;12.968;2022-09-09T14:10:26;21.40;57.60
15384;DHT22;7790;53.022;12.968;2022-09-09T14:14:28;21.40;57.50
15384;DHT22;7790;53.022;12.968;2022-09-09T14:18:30;21.40;57.60
15384;DHT22;7790;53.022;12.968;2022-09-09T14:22:31;21.50;57.60
15384;DHT22;7790;53.022;12.968;2022-09-09T14:26:32;21.50;57.40
15384;DHT22;7790;53.022;12.968;2022-09-09T14:30:33;21.50;57.70
15384;DHT22;7790;53.022;12.968;2022-09-09T14:34:33;21.50;57.60
15384;DHT22;7790;53.022;12.968;2022-09-09T14:38:37;21.60;57.80
15384;DHT22;7790;53.022;12.968;2022-09-09T14:42:42;21.60;57.60
15384;DHT22;7790;53.022;12.968;2022-09-09T14:46:43;21.60;57.70
15384;DHT22;7790;53.022;12.968;2022-09-09T14:50:43;21.70;57.80
15384;DHT22;7790;53.022;12.968;2022-09-09T14:54:44;21.70;57.90
15384;DHT22;7790;53.022;12.968;2022-09-09T14:58:45;21.80;57.80
15384;DHT22;7790;53.022;12.968;2022-09-09T15:02:46;21.80;58.00
15384;DHT22;7790;53.022;12.968;2022-09-09T15:06:47;21.80;58.10
15384;DHT22;7790;53.022;12.968;2022-09-09T15:10:50;21.80;58.20
15384;DHT22;7790;53.022;12.968;2022-09-09T15:14:54;21.90;58.00
15384;DHT22;7790;53.022;12.968;2022-09-09T15:18:57;21.90;58.00
15384;DHT22;7790;53.022;12.968;2022-09-09T15:22:58;21.90;57.90
15384;DHT22;7790;53.022;12.968;2022-09-09T15:27:00;21.90;58.40
15384;DHT22;7790;53.022;12.968;2022-09-09T15:31:05;21.90;58.00
15384;DHT22;7790;53.022;12.968;2022-09-09T15:35:07;21.90;58.00
15384;DHT22;7790;53.022;12.968;2022-09-09T15:39:13;21.90;58.00
15384;DHT22;7790;53.022;12.968;2022-09-09T15:43:16;22.00;58.10
15384;DHT22;7790;53.022;12.968;2022-09-09T15:47:16;21.90;58.10
15384;DHT22;7790;53.022;12.968;2022-09-09T15:51:18;22.00;58.20
15384;DHT22;7790;53.022;12.968;2022-09-09T15:55:19;22.00;58.30
15384;DHT22;7790;53.022;12.968;2022-09-09T15:59:26;22.00;58.50
15384;DHT22;7790;53.022;12.968;2022-09-09T16:03:28;22.00;58.50
15384;DHT22;7790;53.022;12.968;2022-09-09T16:07:30;22.00;58.40
15384;DHT22;7790;53.022;12.968;2022-09-09T16:11:34;22.00;58.50
15384;DHT22;7790;53.022;12.968;2022-09-09T16:15:36;22.00;58.50
15384;DHT22;7790;53.022;12.968;2022-09-09T16:19:37;22.00;58.50
15384;DHT22;7790;53.022;12.968;2022-09-09T16:23:38;22.00;58.50
15384;DHT22;7790;53.022;12.968;2022-09-09T16:27:39;22.00;58.50
15384;DHT22;7790;53.022;12.968;2022-09-09T16:31:40;22.00;58.60
15384;DHT22;7790;53.022;12.968;2022-09-09T16:35:42;21.90;58.60
15384;DHT22;7790;53.022;12.968;2022-09-09T16:39:43;21.90;58.60
15384;DHT22;7790;53.022;12.968;2022-09-09T16:43:43;21.90;58.70
15384;DHT22;7790;53.022;12.968;2022-09-09T16:47:44;21.90;58.60
15384;DHT22;7790;53.022;12.968;2022-09-09T16:51:47;21.90;58.60
15384;DHT22;7790;53.022;12.968;2022-09-09T16:55:48;21.90;58.60
15384;DHT22;7790;53.022;12.968;2022-09-09T16:59:49;21.90;58.60
15384;DHT22;7790;53.022;12.968;2022-09-09T17:03:59;21.90;58.80
15384;DHT22;7790;53.022;12.968;2022-09-09T17:08:01;21.90;59.20
15384;DHT22;7790;53.022;12.968;2022-09-09T17:12:02;21.90;59.50
15384;DHT22;7790;53.022;12.968;2022-09-09T17:16:04;21.90;59.60
15384;DHT22;7790;53.022;12.968;2022-09-09T17:20:05;21.80;59.70
15384;DHT22;7790;53.022;12.968;2022-09-09T17:24:10;21.80;59.50
15384;DHT22;7790;53.022;12.968;2022-09-09T17:28:11;21.80;60.10
15384;DHT22;7790;53.022;12.968;2022-09-09T17:32:13;21.80;60.00
15384;DHT22;7790;53.022;12.968;2022-09-09T17:36:17;21.80;60.00
15384;DHT22;7790;53.022;12.968;2022-09-09T17:40:18;21.80;59.90
15384;DHT22;7790;53.022;12.968;2022-09-09T17:44:20;21.80;59.90
15384;DHT22;7790;53.022;12.968;2022-09-09T17:48:21;21.80;60.00
15384;DHT22;7790;53.022;12.968;2022-09-09T17:52:22;21.80;60.00
15384;DHT22;7790;53.022;12.968;2022-09-09T17:56:23;21.80;59.90
15384;DHT22;7790;53.022;12.968;2022-09-09T18:00:25;21.80;59.80
15384;DHT22;7790;53.022;12.968;2022-09-09T18:04:26;21.70;59.80
15384;DHT22;7790;53.022;12.968;2022-09-09T18:08:27;21.70;59.90
15384;DHT22;7790;53.022;12.968;2022-09-09T18:12:28;21.70;60.00
15384;DHT22;7790;53.022;12.968;2022-09-09T18:16:32;21.70;59.80
15384;DHT22;7790;53.022;12.968;2022-09-09T18:20:36;21.70;59.80
15384;DHT22;7790;53.022;12.968;2022-09-09T18:24:37;21.70;59.80
15384;DHT22;7790;53.022;12.968;2022-09-09T18:28:39;21.70;59.80
15384;DHT22;7790;53.022;12.968;2022-09-09T18:32:40;21.60;60.10
15384;DHT22;7790;53.022;12.968;2022-09-09T18:36:46;21.60;60.30
15384;DHT22;7790;53.022;12.968;2022-09-09T18:40:47;21.60;60.40
15384;DHT22;7790;53.022;12.968;2022-09-09T18:44:48;21.60;60.50
15384;DHT22;7790;53.022;12.968;2022-09-09T18:48:49;21.60;60.40
15384;DHT22;7790;53.022;12.968;2022-09-09T18:52:51;21.60;60.20
15384;DHT22;7790;53.022;12.968;2022-09-09T18:56:52;21.60;60.50
15384;DHT22;7790;53.022;12.968;2022-09-09T19:00:53;21.60;60.40
15384;DHT22;7790;53.022;12.968;2022-09-09T19:04:54;21.60;60.40
15384;DHT22;7790;53.022;12.968;2022-09-09T19:08:56;21.50;60.20
15384;DHT22;7790;53.022;12.968;2022-09-09T19:13:00;21.50;60.10
15384;DHT22;7790;53.022;12.968;2022-09-09T19:17:02;21.50;60.20
15384;DHT22;7790;53.022;12.968;2022-09-09T19:21:22;21.50;60.10
15384;DHT22;7790;53.022;12.968;2022-09-09T19:25:23;21.50;60.00
15384;DHT22;7790;53.022;12.968;2022-09-09T19:29:25;21.50;59.90
15384;DHT22;7790;53.022;12.968;2022-09-09T19:33:26;21.50;59.90
15384;DHT22;7790;53.022;12.968;2022-09-09T19:37:27;21.50;59.80
15384;DHT22;7790;53.022;12.968;2022-09-09T19:41:28;21.50;59.80
15384;DHT22;7790;53.022;12.968;2022-09-09T19:45:31;21.50;59.90
15384;DHT22;7790;53.022;12.968;2022-09-09T19:49:32;21.50;59.70
15384;DHT22;7790;53.022;12.968;2022-09-09T19:53:39;21.50;59.80
15384;DHT22;7790;53.022;12.968;2022-09-09T19:57:40;21.50;59.70
15384;DHT22;7790;53.022;12.968;2022-09-09T20:01:42;21.50;59.70
15384;DHT22;7790;53.022;12.968;2022-09-09T20:05:44;21.50;59.70
15384;DHT22;7790;53.022;12.968;2022-09-09T20:09:45;21.50;59.70
15384;DHT22;7790;53.022;12.968;2022-09-09T20:13:48;21.40;59.60
15384;DHT22;7790;53.022;12.968;2022-09-09T20:17:49;21.40;59.60
15384;DHT22;7790;53.022;12.968;2022-09-09T20:21:50;21.40;59.60
15384;DHT22;7790;53.022;12.968;2022-09-09T20:25:51;21.50;59.70
15384;DHT22;7790;53.022;12.968;2022-09-09T20:29:52;21.40;59.60
15384;DHT22;7790;53.022;12.968;2022-09-09T20:33:54;21.40;59.60
15384;DHT22;7790;53.022;12.968;2022-09-09T20:37:55;21.40;59.50
15384;DHT22;7790;53.022;12.968;2022-09-09T20:41:56;21.40;59.50
15384;DHT22;7790;53.022;12.968;2022-09-09T20:46:01;21.40;59.50
15384;DHT22;7790;53.022;12.968;2022-09-09T20:50:02;21.40;59.50
15384;DHT22;7790;53.022;12.968;2022-09-09T20:54:14;21.40;59.50
15384;DHT22;7790;53.022;12.968;2022-09-09T20:58:15;21.40;59.50
15384;DHT22;7790;53.022;12.968;2022-09-09T21:02:16;21.30;59.50
15384;DHT22;7790;53.022;12.968;2022-09-09T21:06:20;21.40;59.50
15384;DHT22;7790;53.022;12.968;2022-09-09T21:10:21;21.30;59.50
15384;DHT22;7790;53.022;12.968;2022-09-09T21:14:21;21.30;59.40
15384;DHT22;7790;53.022;12.968;2022-09-09T21:18:23;21.30;59.40
15384;DHT22;7790;53.022;12.968;2022-09-09T21:22:23;21.30;59.40
15384;DHT22;7790;53.022;12.968;2022-09-09T21:26:25;21.30;59.40
15384;DHT22;7790;53.022;12.968;2022-09-09T21:30:26;21.30;59.30
15384;DHT22;7790;53.022;12.968;2022-09-09T21:34:28;21.30;59.40
15384;DHT22;7790;53.022;12.968;2022-09-09T21:38:29;21.30;59.40
15384;DHT22;7790;53.022;12.968;2022-09-09T21:42:30;21.30;59.30
15384;DHT22;7790;53.022;12.968;2022-09-09T21:46:31;21.30;59.30
15384;DHT22;7790;53.022;12.968;2022-09-09T21:50:43;21.30;59.30
15384;DHT22;7790;53.022;12.968;2022-09-09T21:54:44;21.30;59.30
15384;DHT22;7790;53.022;12.968;2022-09-09T21:58:45;21.30;59.30
15384;DHT22;7790;53.022;12.968;2022-09-09T22:02:46;21.20;59.20
15384;DHT22;7790;53.022;12.968;2022-09-09T22:06:47;21.20;59.20
15384;DHT22;7790;53.022;12.968;2022-09-09T22:10:48;21.20;59.20
15384;DHT22;7790;53.022;12.968;2022-09-09T22:14:49;21.20;59.20
15384;DHT22;7790;53.022;12.968;2022-09-09T22:18:55;21.20;59.20
15384;DHT22;7790;53.022;12.968;2022-09-09T22:22:56;21.20;59.20
15384;DHT22;7790;53.022;12.968;2022-09-09T22:26:57;21.20;59.20
15384;DHT22;7790;53.022;12.968;2022-09-09T22:30:58;21.20;59.10
15384;DHT22;7790;53.022;12.968;2022-09-09T22:34:59;21.20;59.20
15384;DHT22;7790;53.022;12.968;2022-09-09T22:39:00;21.20;59.20
15384;DHT22;7790;53.022;12.968;2022-09-09T22:43:01;21.20;59.20
15384;DHT22;7790;53.022;12.968;2022-09-09T22:47:02;21.20;59.10
15384;DHT22;7790;53.022;12.968;2022-09-09T22:51:05;21.20;59.20
15384;DHT22;7790;53.022;12.968;2022-09-09T22:55:06;21.10;59.10
15384;DHT22;7790;53.022;12.968;2022-09-09T22:59:09;21.20;59.10
15384;DHT22;7790;53.022;12.968;2022-09-09T23:03:10;21.20;59.20
15384;DHT22;7790;53.022;12.968;2022-09-09T23:07:13;21.20;59.10
15384;DHT22;7790;53.022;12.968;2022-09-09T23:11:15;21.10;59.00
15384;DHT22;7790;53.022;12.968;2022-09-09T23:15:16;21.10;59.00
15384;DHT22;7790;53.022;12.968;2022-09-09T23:19:18;21.10;59.00
15384;DHT22;7790;53.022;12.968;2022-09-09T23:23:21;21.10;59.00
15384;DHT22;7790;53.022;12.968;2022-09-09T23:27:25;21.10;58.90
15384;DHT22;7790;53.022;12.968;2022-09-09T23:31:28;21.10;58.90
15384;DHT22;7790;53.022;12.968;2022-09-09T23:35:30;21.10;58.90
15384;DHT22;7790;53.022;12.968;2022-09-09T23:39:32;21.10;58.80
15384;DHT22;7790;53.022;12.968;2022-09-09T23:43:34;21.10;58.80
15384;DHT22;7790;53.022;12.968;2022-09-09T23:47:39;21.10;58.80
15384;DHT22;7790;53.022;12.968;2022-09-09T23:51:40;21.10;58.80
15384;DHT22;7790;53.022;12.968;2022-09-09T23:55:41;21.10;58.80
15384;DHT22;7790;53.022;12.968;2022-09-09T23:59:42;21.10;58.80
